sensor_id;sensor_type;location;lat;lon;timestamp;P1;durP1;ratioP1;P2;durP2;ratioP2
18520;SDS011;9390;51.244;6.982;2023-07-13T00:02:20;11.52;;;2.05;;
18520;SDS011;9390;51.244;6.982;2023-07-13T00:04:51;5.22;;;1.23;;
18520;SDS011;9390;51.244;6.982;2023-07-13T00:07:23;7.50;;;1.48;;
18520;SDS011;9390;51.244;6.982;2023-07-13T00:09:56;7.55;;;1.60;;
18520;SDS011;9390;51.244;6.982;2023-07-13T00:12:28;5.90;;;1.40;;
18520;SDS011;9390;51.244;6.982;2023-07-13T00:15:01;9.43;;;1.33;;
18520;SDS011;9390;51.244;6.982;2023-07-13T00:17:34;8.30;;;1.50;;
18520;SDS011;9390;51.244;6.982;2023-07-13T00:20:08;6.65;;;1.45;;
18520;SDS011;9390;51.244;6.982;2023-07-13T00:22:40;6.50;;;1.50;;
18520;SDS011;9390;51.244;6.982;2023-07-13T00:25:13;7.50;;;1.85;;
18520;SDS011;9390;51.244;6.982;2023-07-13T00:27:46;5.47;;;1.40;;
18520;SDS011;9390;51.244;6.982;2023-07-13T00:30:18;7.70;;;2.25;;
18520;SDS011;9390;51.244;6.982;2023-07-13T00:32:50;7.35;;;1.63;;
18520;SDS011;9390;51.244;6.982;2023-07-13T00:35:21;11.27;;;1.77;;
18520;SDS011;9390;51.244;6.982;2023-07-13T00:37:53;5.80;;;1.80;;
18520;SDS011;9390;51.244;6.982;2023-07-13T00:42:59;4.70;;;1.60;;
18520;SDS011;9390;51.244;6.982;2023-07-13T00:48:41;6.78;;;2.00;;
18520;SDS011;9390;51.244;6.982;2023-07-13T00:51:13;6.78;;;1.65;;
18520;SDS011;9390;51.244;6.982;2023-07-13T00:53:45;6.50;;;1.95;;
18520;SDS011;9390;51.244;6.982;2023-07-13T00:56:18;7.60;;;1.70;;
18520;SDS011;9390;51.244;6.982;2023-07-13T00:58:50;7.55;;;1.67;;
18520;SDS011;9390;51.244;6.982;2023-07-13T01:01:21;5.90;;;1.80;;
18520;SDS011;9390;51.244;6.982;2023-07-13T01:03:53;5.00;;;1.52;;
18520;SDS011;9390;51.244;6.982;2023-07-13T01:06:24;8.82;;;2.00;;
18520;SDS011;9390;51.244;6.982;2023-07-13T01:08:56;7.18;;;2.25;;
18520;SDS011;9390;51.244;6.982;2023-07-13T01:11:29;8.75;;;2.00;;
18520;SDS011;9390;51.244;6.982;2023-07-13T01:14:01;9.30;;;1.70;;
18520;SDS011;9390;51.244;6.982;2023-07-13T01:16:33;7.95;;;1.75;;
18520;SDS011;9390;51.244;6.982;2023-07-13T01:19:07;6.25;;;1.92;;
18520;SDS011;9390;51.244;6.982;2023-07-13T01:21:49;7.97;;;2.15;;
18520;SDS011;9390;51.244;6.982;2023-07-13T01:24:21;8.60;;;2.17;;
18520;SDS011;9390;51.244;6.982;2023-07-13T01:26:52;7.30;;;1.83;;
18520;SDS011;9390;51.244;6.982;2023-07-13T01:29:24;6.40;;;1.98;;
18520;SDS011;9390;51.244;6.982;2023-07-13T01:31:55;5.40;;;2.05;;
18520;SDS011;9390;51.244;6.982;2023-07-13T01:34:27;5.72;;;1.65;;
18520;SDS011;9390;51.244;6.982;2023-07-13T01:37:00;6.95;;;1.63;;
18520;SDS011;9390;51.244;6.982;2023-07-13T01:39:31;7.35;;;2.08;;
18520;SDS011;9390;51.244;6.982;2023-07-13T01:42:03;5.68;;;1.55;;
18520;SDS011;9390;51.244;6.982;2023-07-13T01:44:34;10.02;;;1.70;;
18520;SDS011;9390;51.244;6.982;2023-07-13T01:47:06;8.68;;;1.95;;
18520;SDS011;9390;51.244;6.982;2023-07-13T01:49:37;6.68;;;1.75;;
18520;SDS011;9390;51.244;6.982;2023-07-13T01:52:10;9.40;;;1.92;;
18520;SDS011;9390;51.244;6.982;2023-07-13T01:54:42;6.55;;;1.60;;
18520;SDS011;9390;51.244;6.982;2023-07-13T01:57:13;7.10;;;1.65;;
18520;SDS011;9390;51.244;6.982;2023-07-13T01:59:45;5.40;;;1.98;;
18520;SDS011;9390;51.244;6.982;2023-07-13T02:02:16;4.40;;;1.58;;
18520;SDS011;9390;51.244;6.982;2023-07-13T02:04:47;6.22;;;1.65;;
18520;SDS011;9390;51.244;6.982;2023-07-13T02:07:20;8.65;;;1.70;;
18520;SDS011;9390;51.244;6.982;2023-07-13T02:09:52;9.48;;;2.92;;
18520;SDS011;9390;51.244;6.982;2023-07-13T02:12:23;6.45;;;1.60;;
18520;SDS011;9390;51.244;6.982;2023-07-13T02:14:55;8.27;;;1.65;;
18520;SDS011;9390;51.244;6.982;2023-07-13T02:17:26;7.18;;;1.58;;
18520;SDS011;9390;51.244;6.982;2023-07-13T02:19:58;5.13;;;1.52;;
18520;SDS011;9390;51.244;6.982;2023-07-13T02:22:31;6.72;;;1.90;;
18520;SDS011;9390;51.244;6.982;2023-07-13T02:25:02;7.15;;;2.17;;
18520;SDS011;9390;51.244;6.982;2023-07-13T02:27:34;7.10;;;2.05;;
18520;SDS011;9390;51.244;6.982;2023-07-13T02:30:06;7.38;;;1.77;;
18520;SDS011;9390;51.244;6.982;2023-07-13T02:32:38;5.75;;;1.77;;
18520;SDS011;9390;51.244;6.982;2023-07-13T02:35:09;6.15;;;1.95;;
18520;SDS011;9390;51.244;6.982;2023-07-13T02:37:42;5.45;;;1.63;;
18520;SDS011;9390;51.244;6.982;2023-07-13T02:40:14;7.15;;;1.80;;
18520;SDS011;9390;51.244;6.982;2023-07-13T02:42:45;5.45;;;1.80;;
18520;SDS011;9390;51.244;6.982;2023-07-13T02:45:17;6.35;;;1.80;;
18520;SDS011;9390;51.244;6.982;2023-07-13T02:47:48;8.00;;;1.80;;
18520;SDS011;9390;51.244;6.982;2023-07-13T02:50:20;6.43;;;1.73;;
18520;SDS011;9390;51.244;6.982;2023-07-13T02:52:53;6.78;;;1.75;;
18520;SDS011;9390;51.244;6.982;2023-07-13T02:55:25;5.03;;;1.50;;
18520;SDS011;9390;51.244;6.982;2023-07-13T02:57:56;10.70;;;2.33;;
18520;SDS011;9390;51.244;6.982;2023-07-13T03:00:28;5.60;;;1.70;;
18520;SDS011;9390;51.244;6.982;2023-07-13T03:02:59;6.75;;;1.50;;
18520;SDS011;9390;51.244;6.982;2023-07-13T03:05:30;6.05;;;1.63;;
18520;SDS011;9390;51.244;6.982;2023-07-13T03:08:03;5.03;;;1.50;;
18520;SDS011;9390;51.244;6.982;2023-07-13T03:10:36;8.18;;;2.20;;
18520;SDS011;9390;51.244;6.982;2023-07-13T03:13:07;9.93;;;1.90;;
18520;SDS011;9390;51.244;6.982;2023-07-13T03:15:38;6.55;;;1.77;;
18520;SDS011;9390;51.244;6.982;2023-07-13T03:18:10;6.90;;;1.88;;
18520;SDS011;9390;51.244;6.982;2023-07-13T03:20:41;4.90;;;1.70;;
18520;SDS011;9390;51.244;6.982;2023-07-13T03:23:14;9.95;;;1.90;;
18520;SDS011;9390;51.244;6.982;2023-07-13T03:25:46;15.65;;;2.65;;
18520;SDS011;9390;51.244;6.982;2023-07-13T03:28:18;9.88;;;1.80;;
18520;SDS011;9390;51.244;6.982;2023-07-13T03:30:49;5.63;;;1.80;;
18520;SDS011;9390;51.244;6.982;2023-07-13T03:33:30;5.00;;;1.70;;
18520;SDS011;9390;51.244;6.982;2023-07-13T03:36:01;6.07;;;1.63;;
18520;SDS011;9390;51.244;6.982;2023-07-13T03:38:34;6.78;;;1.70;;
18520;SDS011;9390;51.244;6.982;2023-07-13T03:41:06;8.43;;;1.92;;
18520;SDS011;9390;51.244;6.982;2023-07-13T03:43:37;9.77;;;2.05;;
18520;SDS011;9390;51.244;6.982;2023-07-13T03:46:09;10.25;;;1.77;;
18520;SDS011;9390;51.244;6.982;2023-07-13T03:48:40;6.38;;;2.00;;
18520;SDS011;9390;51.244;6.982;2023-07-13T03:51:14;5.03;;;1.85;;
18520;SDS011;9390;51.244;6.982;2023-07-13T03:53:48;8.40;;;2.58;;
18520;SDS011;9390;51.244;6.982;2023-07-13T03:56:19;6.85;;;2.22;;
18520;SDS011;9390;51.244;6.982;2023-07-13T03:58:51;6.63;;;1.73;;
18520;SDS011;9390;51.244;6.982;2023-07-13T04:01:23;7.38;;;2.35;;
18520;SDS011;9390;51.244;6.982;2023-07-13T04:03:55;9.05;;;2.35;;
18520;SDS011;9390;51.244;6.982;2023-07-13T04:06:27;8.23;;;1.83;;
18520;SDS011;9390;51.244;6.982;2023-07-13T04:09:02;8.35;;;2.00;;
18520;SDS011;9390;51.244;6.982;2023-07-13T04:11:35;8.88;;;2.25;;
18520;SDS011;9390;51.244;6.982;2023-07-13T04:14:07;7.60;;;1.45;;
18520;SDS011;9390;51.244;6.982;2023-07-13T04:16:38;5.93;;;1.88;;
18520;SDS011;9390;51.244;6.982;2023-07-13T04:19:10;7.00;;;2.22;;
18520;SDS011;9390;51.244;6.982;2023-07-13T04:21:41;6.32;;;1.90;;
18520;SDS011;9390;51.244;6.982;2023-07-13T04:24:14;7.32;;;1.70;;
18520;SDS011;9390;51.244;6.982;2023-07-13T04:26:45;9.18;;;2.05;;
18520;SDS011;9390;51.244;6.982;2023-07-13T04:29:17;8.10;;;1.90;;
18520;SDS011;9390;51.244;6.982;2023-07-13T04:31:48;5.20;;;2.00;;
18520;SDS011;9390;51.244;6.982;2023-07-13T04:34:20;5.78;;;1.98;;
18520;SDS011;9390;51.244;6.982;2023-07-13T04:36:51;9.85;;;1.88;;
18520;SDS011;9390;51.244;6.982;2023-07-13T04:39:24;6.50;;;2.28;;
18520;SDS011;9390;51.244;6.982;2023-07-13T04:41:56;7.78;;;1.92;;
18520;SDS011;9390;51.244;6.982;2023-07-13T04:44:27;5.65;;;1.88;;
18520;SDS011;9390;51.244;6.982;2023-07-13T04:46:59;10.10;;;1.90;;
18520;SDS011;9390;51.244;6.982;2023-07-13T04:49:30;3.42;;;1.60;;
18520;SDS011;9390;51.244;6.982;2023-07-13T04:52:01;11.68;;;1.92;;
18520;SDS011;9390;51.244;6.982;2023-07-13T04:54:34;8.88;;;2.10;;
18520;SDS011;9390;51.244;6.982;2023-07-13T04:57:07;7.93;;;1.90;;
18520;SDS011;9390;51.244;6.982;2023-07-13T04:59:38;6.70;;;1.73;;
18520;SDS011;9390;51.244;6.982;2023-07-13T05:02:10;9.23;;;1.73;;
18520;SDS011;9390;51.244;6.982;2023-07-13T05:04:41;16.02;;;2.25;;
18520;SDS011;9390;51.244;6.982;2023-07-13T05:07:12;8.32;;;1.85;;
18520;SDS011;9390;51.244;6.982;2023-07-13T05:09:45;7.85;;;1.88;;
18520;SDS011;9390;51.244;6.982;2023-07-13T05:12:17;7.15;;;1.73;;
18520;SDS011;9390;51.244;6.982;2023-07-13T05:14:49;9.63;;;2.22;;
18520;SDS011;9390;51.244;6.982;2023-07-13T05:17:20;15.60;;;1.75;;
18520;SDS011;9390;51.244;6.982;2023-07-13T05:19:51;5.50;;;1.75;;
18520;SDS011;9390;51.244;6.982;2023-07-13T05:22:23;5.40;;;1.40;;
18520;SDS011;9390;51.244;6.982;2023-07-13T05:24:56;6.40;;;1.80;;
18520;SDS011;9390;51.244;6.982;2023-07-13T05:27:27;5.13;;;1.55;;
18520;SDS011;9390;51.244;6.982;2023-07-13T05:29:59;6.95;;;2.08;;
18520;SDS011;9390;51.244;6.982;2023-07-13T05:32:30;7.75;;;2.83;;
18520;SDS011;9390;51.244;6.982;2023-07-13T05:35:01;7.28;;;2.05;;
18520;SDS011;9390;51.244;6.982;2023-07-13T05:37:33;9.75;;;2.15;;
18520;SDS011;9390;51.244;6.982;2023-07-13T05:40:07;12.18;;;1.90;;
18520;SDS011;9390;51.244;6.982;2023-07-13T05:42:38;7.38;;;1.98;;
18520;SDS011;9390;51.244;6.982;2023-07-13T05:45:10;11.88;;;2.03;;
18520;SDS011;9390;51.244;6.982;2023-07-13T05:47:41;8.88;;;2.00;;
18520;SDS011;9390;51.244;6.982;2023-07-13T05:50:13;9.02;;;2.50;;
18520;SDS011;9390;51.244;6.982;2023-07-13T05:52:45;10.25;;;2.08;;
18520;SDS011;9390;51.244;6.982;2023-07-13T05:55:18;10.40;;;2.30;;
18520;SDS011;9390;51.244;6.982;2023-07-13T05:57:50;10.23;;;2.40;;
18520;SDS011;9390;51.244;6.982;2023-07-13T06:00:21;13.80;;;2.25;;
18520;SDS011;9390;51.244;6.982;2023-07-13T06:02:53;8.85;;;2.20;;
18520;SDS011;9390;51.244;6.982;2023-07-13T06:05:24;9.13;;;1.88;;
18520;SDS011;9390;51.244;6.982;2023-07-13T06:07:57;6.55;;;2.20;;
18520;SDS011;9390;51.244;6.982;2023-07-13T06:10:29;11.50;;;2.30;;
18520;SDS011;9390;51.244;6.982;2023-07-13T06:13:03;11.43;;;2.15;;
18520;SDS011;9390;51.244;6.982;2023-07-13T06:15:34;7.30;;;2.17;;
18520;SDS011;9390;51.244;6.982;2023-07-13T06:18:06;8.75;;;2.42;;
18520;SDS011;9390;51.244;6.982;2023-07-13T06:20:37;11.88;;;2.42;;
18520;SDS011;9390;51.244;6.982;2023-07-13T06:23:09;7.72;;;2.10;;
18520;SDS011;9390;51.244;6.982;2023-07-13T06:25:41;11.18;;;2.40;;
18520;SDS011;9390;51.244;6.982;2023-07-13T06:28:14;7.40;;;2.08;;
18520;SDS011;9390;51.244;6.982;2023-07-13T06:30:45;10.80;;;2.30;;
18520;SDS011;9390;51.244;6.982;2023-07-13T06:33:16;13.18;;;2.97;;
18520;SDS011;9390;51.244;6.982;2023-07-13T06:35:48;9.68;;;1.98;;
18520;SDS011;9390;51.244;6.982;2023-07-13T06:38:19;8.27;;;2.03;;
18520;SDS011;9390;51.244;6.982;2023-07-13T06:40:52;14.65;;;2.35;;
18520;SDS011;9390;51.244;6.982;2023-07-13T06:43:23;11.77;;;2.30;;
18520;SDS011;9390;51.244;6.982;2023-07-13T06:45:55;10.52;;;2.58;;
18520;SDS011;9390;51.244;6.982;2023-07-13T06:48:27;11.65;;;2.92;;
18520;SDS011;9390;51.244;6.982;2023-07-13T06:50:59;7.72;;;2.15;;
18520;SDS011;9390;51.244;6.982;2023-07-13T06:53:30;16.48;;;3.35;;
18520;SDS011;9390;51.244;6.982;2023-07-13T06:56:03;9.95;;;2.55;;
18520;SDS011;9390;51.244;6.982;2023-07-13T06:58:35;11.38;;;2.88;;
18520;SDS011;9390;51.244;6.982;2023-07-13T07:01:06;7.20;;;2.58;;
18520;SDS011;9390;51.244;6.982;2023-07-13T07:03:38;9.80;;;2.78;;
18520;SDS011;9390;51.244;6.982;2023-07-13T07:06:12;13.13;;;2.92;;
18520;SDS011;9390;51.244;6.982;2023-07-13T07:08:45;7.18;;;2.20;;
18520;SDS011;9390;51.244;6.982;2023-07-13T07:11:18;10.30;;;2.63;;
18520;SDS011;9390;51.244;6.982;2023-07-13T07:13:52;12.55;;;2.70;;
18520;SDS011;9390;51.244;6.982;2023-07-13T07:16:24;17.77;;;3.28;;
18520;SDS011;9390;51.244;6.982;2023-07-13T07:18:56;12.30;;;2.97;;
18520;SDS011;9390;51.244;6.982;2023-07-13T07:21:28;12.02;;;2.40;;
18520;SDS011;9390;51.244;6.982;2023-07-13T07:23:59;10.45;;;2.20;;
18520;SDS011;9390;51.244;6.982;2023-07-13T07:26:32;6.78;;;2.13;;
18520;SDS011;9390;51.244;6.982;2023-07-13T07:29:03;9.18;;;2.42;;
18520;SDS011;9390;51.244;6.982;2023-07-13T07:31:35;10.13;;;2.75;;
18520;SDS011;9390;51.244;6.982;2023-07-13T07:34:07;11.30;;;2.75;;
18520;SDS011;9390;51.244;6.982;2023-07-13T07:36:38;13.18;;;2.75;;
18520;SDS011;9390;51.244;6.982;2023-07-13T07:39:10;8.05;;;2.60;;
18520;SDS011;9390;51.244;6.982;2023-07-13T07:41:42;11.60;;;2.55;;
18520;SDS011;9390;51.244;6.982;2023-07-13T07:44:14;10.65;;;2.72;;
18520;SDS011;9390;51.244;6.982;2023-07-13T07:46:46;9.98;;;2.50;;
18520;SDS011;9390;51.244;6.982;2023-07-13T07:49:17;11.60;;;2.50;;
18520;SDS011;9390;51.244;6.982;2023-07-13T07:51:48;10.05;;;2.50;;
18520;SDS011;9390;51.244;6.982;2023-07-13T07:54:20;17.42;;;3.13;;
18520;SDS011;9390;51.244;6.982;2023-07-13T07:56:53;10.20;;;3.67;;
18520;SDS011;9390;51.244;6.982;2023-07-13T07:59:25;12.73;;;2.85;;
18520;SDS011;9390;51.244;6.982;2023-07-13T08:01:56;14.95;;;3.00;;
18520;SDS011;9390;51.244;6.982;2023-07-13T08:04:27;12.20;;;2.72;;
18520;SDS011;9390;51.244;6.982;2023-07-13T08:06:59;10.10;;;2.63;;
18520;SDS011;9390;51.244;6.982;2023-07-13T08:09:32;10.20;;;2.95;;
18520;SDS011;9390;51.244;6.982;2023-07-13T08:12:05;11.48;;;3.05;;
18520;SDS011;9390;51.244;6.982;2023-07-13T08:14:37;12.32;;;2.65;;
18520;SDS011;9390;51.244;6.982;2023-07-13T08:17:09;11.23;;;2.92;;
18520;SDS011;9390;51.244;6.982;2023-07-13T08:19:40;14.25;;;3.28;;
18520;SDS011;9390;51.244;6.982;2023-07-13T08:22:12;8.55;;;2.38;;
18520;SDS011;9390;51.244;6.982;2023-07-13T08:24:43;8.38;;;2.83;;
18520;SDS011;9390;51.244;6.982;2023-07-13T08:27:16;10.77;;;2.70;;
18520;SDS011;9390;51.244;6.982;2023-07-13T08:29:49;10.40;;;3.15;;
18520;SDS011;9390;51.244;6.982;2023-07-13T08:32:22;9.57;;;3.15;;
18520;SDS011;9390;51.244;6.982;2023-07-13T08:34:54;11.88;;;2.85;;
18520;SDS011;9390;51.244;6.982;2023-07-13T08:37:36;14.50;;;3.08;;
18520;SDS011;9390;51.244;6.982;2023-07-13T08:40:08;9.60;;;2.95;;
18520;SDS011;9390;51.244;6.982;2023-07-13T08:42:44;10.27;;;3.08;;
18520;SDS011;9390;51.244;6.982;2023-07-13T08:45:18;11.95;;;2.63;;
18520;SDS011;9390;51.244;6.982;2023-07-13T08:47:52;13.13;;;2.72;;
18520;SDS011;9390;51.244;6.982;2023-07-13T08:50:28;8.00;;;2.38;;
18520;SDS011;9390;51.244;6.982;2023-07-13T08:53:02;15.27;;;2.88;;
18520;SDS011;9390;51.244;6.982;2023-07-13T08:55:34;8.55;;;2.53;;
18520;SDS011;9390;51.244;6.982;2023-07-13T08:58:10;18.27;;;3.10;;
18520;SDS011;9390;51.244;6.982;2023-07-13T09:00:44;9.35;;;2.70;;
18520;SDS011;9390;51.244;6.982;2023-07-13T09:03:23;8.45;;;2.60;;
18520;SDS011;9390;51.244;6.982;2023-07-13T09:05:57;17.05;;;2.90;;
18520;SDS011;9390;51.244;6.982;2023-07-13T09:08:38;9.55;;;2.42;;
18520;SDS011;9390;51.244;6.982;2023-07-13T09:11:25;11.27;;;2.53;;
18520;SDS011;9390;51.244;6.982;2023-07-13T09:14:13;14.98;;;3.00;;
18520;SDS011;9390;51.244;6.982;2023-07-13T09:16:57;12.25;;;2.63;;
18520;SDS011;9390;51.244;6.982;2023-07-13T09:19:30;8.73;;;2.03;;
18520;SDS011;9390;51.244;6.982;2023-07-13T09:22:04;11.93;;;2.80;;
18520;SDS011;9390;51.244;6.982;2023-07-13T09:24:48;10.52;;;2.60;;
18520;SDS011;9390;51.244;6.982;2023-07-13T09:27:25;8.70;;;2.47;;
18520;SDS011;9390;51.244;6.982;2023-07-13T09:32:55;9.02;;;2.47;;
18520;SDS011;9390;51.244;6.982;2023-07-13T09:35:28;11.35;;;2.40;;
18520;SDS011;9390;51.244;6.982;2023-07-13T09:38:03;10.88;;;2.30;;
18520;SDS011;9390;51.244;6.982;2023-07-13T09:40:44;8.80;;;2.30;;
18520;SDS011;9390;51.244;6.982;2023-07-13T09:43:20;13.95;;;3.20;;
18520;SDS011;9390;51.244;6.982;2023-07-13T09:45:53;8.77;;;2.53;;
18520;SDS011;9390;51.244;6.982;2023-07-13T09:48:26;13.43;;;2.60;;
18520;SDS011;9390;51.244;6.982;2023-07-13T09:51:07;12.57;;;2.45;;
18520;SDS011;9390;51.244;6.982;2023-07-13T09:53:45;13.63;;;2.70;;
18520;SDS011;9390;51.244;6.982;2023-07-13T09:56:20;11.15;;;2.25;;
18520;SDS011;9390;51.244;6.982;2023-07-13T09:58:52;10.70;;;2.35;;
18520;SDS011;9390;51.244;6.982;2023-07-13T10:01:35;8.65;;;2.15;;
18520;SDS011;9390;51.244;6.982;2023-07-13T10:04:10;10.13;;;2.65;;
18520;SDS011;9390;51.244;6.982;2023-07-13T10:06:43;9.25;;;2.63;;
18520;SDS011;9390;51.244;6.982;2023-07-13T10:09:15;8.93;;;2.33;;
18520;SDS011;9390;51.244;6.982;2023-07-13T10:11:47;12.63;;;1.83;;
18520;SDS011;9390;51.244;6.982;2023-07-13T10:14:21;10.75;;;2.20;;
18520;SDS011;9390;51.244;6.982;2023-07-13T10:16:58;11.25;;;2.10;;
18520;SDS011;9390;51.244;6.982;2023-07-13T10:19:32;9.55;;;2.17;;
18520;SDS011;9390;51.244;6.982;2023-07-13T10:22:10;7.43;;;2.10;;
18520;SDS011;9390;51.244;6.982;2023-07-13T10:25:01;9.07;;;2.35;;
18520;SDS011;9390;51.244;6.982;2023-07-13T10:27:34;9.93;;;1.77;;
18520;SDS011;9390;51.244;6.982;2023-07-13T10:30:09;9.30;;;1.85;;
18520;SDS011;9390;51.244;6.982;2023-07-13T10:32:45;7.75;;;2.35;;
18520;SDS011;9390;51.244;6.982;2023-07-13T10:35:18;8.48;;;1.83;;
18520;SDS011;9390;51.244;6.982;2023-07-13T10:37:51;7.75;;;1.83;;
18520;SDS011;9390;51.244;6.982;2023-07-13T10:40:26;8.02;;;2.22;;
18520;SDS011;9390;51.244;6.982;2023-07-13T10:43:00;6.70;;;1.88;;
18520;SDS011;9390;51.244;6.982;2023-07-13T10:45:36;7.38;;;2.03;;
18520;SDS011;9390;51.244;6.982;2023-07-13T10:48:10;10.25;;;1.92;;
18520;SDS011;9390;51.244;6.982;2023-07-13T10:50:44;7.78;;;2.00;;
18520;SDS011;9390;51.244;6.982;2023-07-13T10:53:17;9.07;;;2.08;;
18520;SDS011;9390;51.244;6.982;2023-07-13T10:55:58;10.10;;;2.05;;
18520;SDS011;9390;51.244;6.982;2023-07-13T10:58:34;9.18;;;2.55;;
18520;SDS011;9390;51.244;6.982;2023-07-13T11:01:07;7.90;;;1.63;;
18520;SDS011;9390;51.244;6.982;2023-07-13T11:03:47;8.90;;;1.67;;
18520;SDS011;9390;51.244;6.982;2023-07-13T11:06:30;8.20;;;1.90;;
18520;SDS011;9390;51.244;6.982;2023-07-13T11:09:17;5.57;;;1.80;;
18520;SDS011;9390;51.244;6.982;2023-07-13T11:11:50;9.00;;;1.98;;
18520;SDS011;9390;51.244;6.982;2023-07-13T11:14:26;6.05;;;1.80;;
18520;SDS011;9390;51.244;6.982;2023-07-13T11:17:00;8.23;;;2.08;;
18520;SDS011;9390;51.244;6.982;2023-07-13T11:20:30;11.57;;;2.60;;
18520;SDS011;9390;51.244;6.982;2023-07-13T11:23:08;14.43;;;2.33;;
18520;SDS011;9390;51.244;6.982;2023-07-13T11:25:48;12.00;;;2.50;;
18520;SDS011;9390;51.244;6.982;2023-07-13T11:28:24;7.75;;;1.80;;
18520;SDS011;9390;51.244;6.982;2023-07-13T11:31:01;13.00;;;2.30;;
18520;SDS011;9390;51.244;6.982;2023-07-13T11:33:49;13.70;;;2.25;;
18520;SDS011;9390;51.244;6.982;2023-07-13T11:36:24;5.32;;;1.75;;
18520;SDS011;9390;51.244;6.982;2023-07-13T11:39:04;12.77;;;2.40;;
18520;SDS011;9390;51.244;6.982;2023-07-13T11:41:38;8.25;;;1.70;;
18520;SDS011;9390;51.244;6.982;2023-07-13T11:44:16;7.15;;;1.83;;
18520;SDS011;9390;51.244;6.982;2023-07-13T11:46:50;8.65;;;1.75;;
18520;SDS011;9390;51.244;6.982;2023-07-13T11:49:23;8.60;;;1.92;;
18520;SDS011;9390;51.244;6.982;2023-07-13T11:51:58;9.10;;;1.70;;
18520;SDS011;9390;51.244;6.982;2023-07-13T11:54:33;8.35;;;1.77;;
18520;SDS011;9390;51.244;6.982;2023-07-13T11:57:16;5.65;;;1.90;;
18520;SDS011;9390;51.244;6.982;2023-07-13T11:59:53;7.82;;;1.70;;
18520;SDS011;9390;51.244;6.982;2023-07-13T12:02:27;6.00;;;1.60;;
18520;SDS011;9390;51.244;6.982;2023-07-13T12:05:00;8.40;;;2.13;;
18520;SDS011;9390;51.244;6.982;2023-07-13T12:07:35;9.27;;;1.58;;
18520;SDS011;9390;51.244;6.982;2023-07-13T12:10:15;8.38;;;2.03;;
18520;SDS011;9390;51.244;6.982;2023-07-13T12:12:51;7.05;;;1.52;;
18520;SDS011;9390;51.244;6.982;2023-07-13T12:15:27;6.93;;;1.70;;
18520;SDS011;9390;51.244;6.982;2023-07-13T12:18:02;8.70;;;1.48;;
18520;SDS011;9390;51.244;6.982;2023-07-13T12:20:35;6.75;;;1.80;;
18520;SDS011;9390;51.244;6.982;2023-07-13T12:23:14;8.40;;;2.10;;
18520;SDS011;9390;51.244;6.982;2023-07-13T12:25:52;9.73;;;1.75;;
18520;SDS011;9390;51.244;6.982;2023-07-13T12:28:30;5.10;;;1.50;;
18520;SDS011;9390;51.244;6.982;2023-07-13T12:31:06;6.78;;;2.15;;
18520;SDS011;9390;51.244;6.982;2023-07-13T12:33:39;5.88;;;1.65;;
18520;SDS011;9390;51.244;6.982;2023-07-13T12:36:11;4.70;;;1.30;;
18520;SDS011;9390;51.244;6.982;2023-07-13T12:38:46;6.88;;;1.80;;
18520;SDS011;9390;51.244;6.982;2023-07-13T12:41:17;5.15;;;1.42;;
18520;SDS011;9390;51.244;6.982;2023-07-13T12:43:49;8.23;;;1.70;;
18520;SDS011;9390;51.244;6.982;2023-07-13T12:46:23;8.65;;;1.77;;
18520;SDS011;9390;51.244;6.982;2023-07-13T12:48:56;6.30;;;1.65;;
18520;SDS011;9390;51.244;6.982;2023-07-13T12:51:29;7.90;;;1.50;;
18520;SDS011;9390;51.244;6.982;2023-07-13T12:54:07;9.55;;;1.60;;
18520;SDS011;9390;51.244;6.982;2023-07-13T12:56:45;8.63;;;1.90;;
18520;SDS011;9390;51.244;6.982;2023-07-13T12:59:20;6.90;;;1.48;;
18520;SDS011;9390;51.244;6.982;2023-07-13T13:01:56;7.32;;;1.50;;
18520;SDS011;9390;51.244;6.982;2023-07-13T13:04:27;5.38;;;1.10;;
18520;SDS011;9390;51.244;6.982;2023-07-13T13:07:03;7.35;;;1.35;;
18520;SDS011;9390;51.244;6.982;2023-07-13T13:09:38;5.05;;;1.20;;
18520;SDS011;9390;51.244;6.982;2023-07-13T13:14:40;6.47;;;1.30;;
18520;SDS011;9390;51.244;6.982;2023-07-13T13:17:16;8.80;;;1.50;;
18520;SDS011;9390;51.244;6.982;2023-07-13T13:19:50;8.15;;;1.85;;
18520;SDS011;9390;51.244;6.982;2023-07-13T13:22:23;4.55;;;1.20;;
18520;SDS011;9390;51.244;6.982;2023-07-13T13:24:55;9.93;;;1.75;;
18520;SDS011;9390;51.244;6.982;2023-07-13T13:29:59;6.57;;;1.63;;
18520;SDS011;9390;51.244;6.982;2023-07-13T13:32:31;6.78;;;1.48;;
18520;SDS011;9390;51.244;6.982;2023-07-13T13:35:03;5.95;;;2.10;;
18520;SDS011;9390;51.244;6.982;2023-07-13T13:37:36;5.90;;;1.42;;
18520;SDS011;9390;51.244;6.982;2023-07-13T13:40:15;5.57;;;1.70;;
18520;SDS011;9390;51.244;6.982;2023-07-13T13:42:47;10.55;;;1.50;;
18520;SDS011;9390;51.244;6.982;2023-07-13T13:45:19;7.45;;;1.50;;
18520;SDS011;9390;51.244;6.982;2023-07-13T13:47:51;6.50;;;1.58;;
18520;SDS011;9390;51.244;6.982;2023-07-13T13:50:22;8.27;;;1.70;;
18520;SDS011;9390;51.244;6.982;2023-07-13T13:52:54;5.43;;;1.60;;
18520;SDS011;9390;51.244;6.982;2023-07-13T13:55:27;4.88;;;1.52;;
18520;SDS011;9390;51.244;6.982;2023-07-13T14:00:30;5.80;;;1.55;;
18520;SDS011;9390;51.244;6.982;2023-07-13T14:03:01;5.32;;;1.48;;
18520;SDS011;9390;51.244;6.982;2023-07-13T14:05:33;8.18;;;1.88;;
18520;SDS011;9390;51.244;6.982;2023-07-13T14:08:04;4.80;;;1.58;;
18520;SDS011;9390;51.244;6.982;2023-07-13T14:10:37;5.97;;;1.50;;
18520;SDS011;9390;51.244;6.982;2023-07-13T14:15:45;6.47;;;1.52;;
18520;SDS011;9390;51.244;6.982;2023-07-13T14:18:16;9.10;;;1.75;;
18520;SDS011;9390;51.244;6.982;2023-07-13T14:20:48;8.65;;;1.80;;
18520;SDS011;9390;51.244;6.982;2023-07-13T14:23:22;5.70;;;1.80;;
18520;SDS011;9390;51.244;6.982;2023-07-13T14:25:54;13.60;;;2.42;;
18520;SDS011;9390;51.244;6.982;2023-07-13T14:30:58;3.65;;;1.40;;
18520;SDS011;9390;51.244;6.982;2023-07-13T14:33:30;6.78;;;1.40;;
18520;SDS011;9390;51.244;6.982;2023-07-13T14:36:01;8.77;;;2.03;;
18520;SDS011;9390;51.244;6.982;2023-07-13T14:38:33;10.27;;;1.80;;
18520;SDS011;9390;51.244;6.982;2023-07-13T14:41:07;6.90;;;1.52;;
18520;SDS011;9390;51.244;6.982;2023-07-13T14:43:39;6.47;;;1.70;;
18520;SDS011;9390;51.244;6.982;2023-07-13T14:46:12;5.15;;;1.55;;
18520;SDS011;9390;51.244;6.982;2023-07-13T14:48:53;4.32;;;1.35;;
18520;SDS011;9390;51.244;6.982;2023-07-13T14:51:29;6.40;;;1.50;;
18520;SDS011;9390;51.244;6.982;2023-07-13T14:54:03;6.13;;;2.25;;
18520;SDS011;9390;51.244;6.982;2023-07-13T14:56:37;5.47;;;1.35;;
18520;SDS011;9390;51.244;6.982;2023-07-13T15:01:40;5.75;;;1.75;;
18520;SDS011;9390;51.244;6.982;2023-07-13T15:04:11;6.78;;;1.65;;
18520;SDS011;9390;51.244;6.982;2023-07-13T15:06:53;7.18;;;2.05;;
18520;SDS011;9390;51.244;6.982;2023-07-13T15:09:26;8.93;;;1.85;;
18520;SDS011;9390;51.244;6.982;2023-07-13T15:12:00;6.43;;;1.35;;
18520;SDS011;9390;51.244;6.982;2023-07-13T15:17:03;7.72;;;1.80;;
18520;SDS011;9390;51.244;6.982;2023-07-13T15:19:35;15.80;;;2.28;;
18520;SDS011;9390;51.244;6.982;2023-07-13T15:22:07;14.70;;;2.97;;
18520;SDS011;9390;51.244;6.982;2023-07-13T15:24:39;11.68;;;2.70;;
18520;SDS011;9390;51.244;6.982;2023-07-13T15:27:13;12.25;;;3.00;;
18520;SDS011;9390;51.244;6.982;2023-07-13T15:29:45;8.80;;;2.63;;
18520;SDS011;9390;51.244;6.982;2023-07-13T15:32:17;9.25;;;3.13;;
18520;SDS011;9390;51.244;6.982;2023-07-13T15:34:49;8.35;;;2.90;;
18520;SDS011;9390;51.244;6.982;2023-07-13T15:37:21;10.25;;;3.85;;
18520;SDS011;9390;51.244;6.982;2023-07-13T15:39:52;11.00;;;3.85;;
18520;SDS011;9390;51.244;6.982;2023-07-13T15:42:25;14.32;;;4.57;;
18520;SDS011;9390;51.244;6.982;2023-07-13T15:44:57;11.23;;;4.05;;
18520;SDS011;9390;51.244;6.982;2023-07-13T15:47:29;10.35;;;4.15;;
18520;SDS011;9390;51.244;6.982;2023-07-13T15:50:00;8.98;;;4.03;;
18520;SDS011;9390;51.244;6.982;2023-07-13T15:52:32;10.60;;;3.75;;
18520;SDS011;9390;51.244;6.982;2023-07-13T15:55:04;11.52;;;3.40;;
18520;SDS011;9390;51.244;6.982;2023-07-13T15:57:38;11.35;;;3.90;;
18520;SDS011;9390;51.244;6.982;2023-07-13T16:00:19;13.05;;;4.00;;
18520;SDS011;9390;51.244;6.982;2023-07-13T16:02:52;12.05;;;3.53;;